Time,TemperatureF,DewpointF,PressureIn,WindDirection,WindDirectionDegrees,WindSpeedMPH,WindSpeedGustMPH,Humidity,HourlyPrecipIn,Conditions,Clouds,dailyrainin,SoftwareType,DateUTC
2013-03-14 00:02:00,23.0,13.0,30.28,North,0,0.0,2.0,64,0.00,,,0.00,,2013-03-14 05:02:00,
2013-03-14 00:12:00,23.0,13.0,30.28,North,0,0.0,2.0,64,0.00,,,0.00,,2013-03-14 05:12:00,
2013-03-14 00:22:00,23.0,13.0,30.28,North,0,0.0,2.0,64,0.00,,,0.00,,2013-03-14 05:22:00,
2013-03-14 00:33:00,23.0,12.0,30.28,North,0,0.0,2.0,63,0.00,,,0.00,,2013-03-14 05:33:00,
2013-03-14 00:42:00,23.0,12.0,30.28,North,0,0.0,2.0,63,0.00,,,0.00,,2013-03-14 05:42:00,
2013-03-14 00:53:00,23.0,12.0,30.28,North,0,0.0,2.0,63,0.00,,,0.00,,2013-03-14 05:53:00,
2013-03-14 01:02:00,23.0,12.0,30.28,North,0,0.0,2.0,63,0.00,,,0.00,,2013-03-14 06:02:00,
2013-03-14 01:12:00,23.0,12.0,30.28,North,0,0.0,2.0,63,0.00,,,0.00,,2013-03-14 06:12:00,
2013-03-14 01:22:00,23.0,13.0,30.29,North,0,0.0,1.0,64,0.00,,,0.00,,2013-03-14 06:22:00,
2013-03-14 01:32:00,22.0,12.0,30.29,North,0,0.0,0.0,66,0.00,,,0.00,,2013-03-14 06:32:00,
2013-03-14 01:42:00,22.0,12.0,30.29,North,0,0.0,0.0,66,0.00,,,0.00,,2013-03-14 06:42:00,
2013-03-14 01:52:00,22.0,12.0,30.28,North,0,0.0,0.0,66,0.00,,,0.00,,2013-03-14 06:52:00,
2013-03-14 02:02:00,22.0,12.0,30.28,North,0,0.0,0.0,66,0.00,,,0.00,,2013-03-14 07:02:00,
2013-03-14 02:12:00,22.0,12.0,30.28,North,0,0.0,0.0,66,0.00,,,0.00,,2013-03-14 07:12:00,
2013-03-14 02:22:00,21.0,12.0,30.29,North,0,0.0,0.0,68,0.00,,,0.00,,2013-03-14 07:22:00,
2013-03-14 02:32:00,21.0,12.0,30.29,North,0,0.0,0.0,69,0.00,,,0.00,,2013-03-14 07:32:00,
2013-03-14 02:42:00,21.0,12.0,30.29,North,0,0.0,0.0,69,0.00,,,0.00,,2013-03-14 07:42:00,
2013-03-14 02:52:00,21.0,13.0,30.28,North,0,0.0,0.0,71,0.00,,,0.00,,2013-03-14 07:52:00,
2013-03-14 03:02:00,20.0,12.0,30.28,North,0,0.0,0.0,71,0.00,,,0.00,,2013-03-14 08:02:00,
2013-03-14 03:12:00,20.0,12.0,30.28,North,0,0.0,0.0,71,0.00,,,0.00,,2013-03-14 08:12:00,
2013-03-14 03:21:00,20.0,13.0,30.28,North,0,0.0,0.0,73,0.00,,,0.00,,2013-03-14 08:21:00,
2013-03-14 03:32:00,20.0,13.0,30.28,North,0,0.0,0.0,73,0.00,,,0.00,,2013-03-14 08:32:00,
2013-03-14 03:41:00,20.0,13.0,30.28,North,0,0.0,0.0,73,0.00,,,0.00,,2013-03-14 08:41:00,
2013-03-14 03:52:00,19.0,12.0,30.27,North,0,0.0,0.0,74,0.00,,,0.00,,2013-03-14 08:52:00,
2013-03-14 04:01:00,19.0,12.0,30.27,North,0,0.0,0.0,74,0.00,,,0.00,,2013-03-14 09:01:00,
2013-03-14 04:12:00,19.0,12.0,30.27,North,0,0.0,0.0,74,0.00,,,0.00,,2013-03-14 09:12:00,
2013-03-14 04:22:00,19.0,12.0,30.27,North,0,0.0,0.0,75,0.00,,,0.00,,2013-03-14 09:22:00,
2013-03-14 04:32:00,19.0,12.0,30.26,North,0,0.0,0.0,75,0.00,,,0.00,,2013-03-14 09:32:00,
2013-03-14 04:42:00,19.0,12.0,30.26,North,0,0.0,0.0,75,0.00,,,0.00,,2013-03-14 09:42:00,
2013-03-14 04:52:00,18.0,11.0,30.26,North,0,0.0,0.0,75,0.00,,,0.00,,2013-03-14 09:52:00,
2013-03-14 05:02:00,18.0,11.0,30.26,North,0,0.0,0.0,75,0.00,,,0.00,,2013-03-14 10:02:00,
2013-03-14 05:12:00,18.0,11.0,30.26,North,0,0.0,0.0,75,0.00,,,0.00,,2013-03-14 10:12:00,
2013-03-14 05:22:00,18.0,11.0,30.26,North,0,0.0,0.0,75,0.00,,,0.00,,2013-03-14 10:22:00,
2013-03-14 05:32:00,18.0,11.0,30.26,North,0,0.0,0.0,75,0.00,,,0.00,,2013-03-14 10:32:00,
2013-03-14 05:42:00,18.0,11.0,30.26,North,0,0.0,0.0,75,0.00,,,0.00,,2013-03-14 10:42:00,
2013-03-14 05:52:00,18.0,11.0,30.26,North,0,0.0,0.0,75,0.00,,,0.00,,2013-03-14 10:52:00,
2013-03-14 06:02:00,18.0,11.0,30.26,North,0,0.0,0.0,75,0.00,,,0.00,,2013-03-14 11:02:00,
2013-03-14 06:12:00,18.0,11.0,30.26,North,0,0.0,0.0,75,0.00,,,0.00,,2013-03-14 11:12:00,
2013-03-14 06:22:00,18.0,11.0,30.26,North,0,0.0,0.0,75,0.00,,,0.00,,2013-03-14 11:22:00,
2013-03-14 06:32:00,18.0,11.0,30.26,North,0,0.0,0.0,75,0.00,,,0.00,,2013-03-14 11:32:00,
2013-03-14 06:42:00,18.0,11.0,30.26,North,0,0.0,0.0,75,0.00,,,0.00,,2013-03-14 11:42:00,
2013-03-14 06:52:00,16.0,9.0,30.26,North,0,0.0,0.0,75,0.00,,,0.00,,2013-03-14 11:52:00,
2013-03-14 07:02:00,16.0,9.0,30.26,North,0,0.0,0.0,75,0.00,,,0.00,,2013-03-14 12:02:00,
2013-03-14 07:12:00,16.0,9.0,30.26,North,0,0.0,0.0,75,0.00,,,0.00,,2013-03-14 12:12:00,
2013-03-14 07:22:00,16.0,9.0,30.26,North,0,0.0,0.0,75,0.00,,,0.00,,2013-03-14 12:22:00,
2013-03-14 07:33:00,16.0,9.0,30.26,North,0,0.0,0.0,75,0.00,,,0.00,,2013-03-14 12:33:00,
2013-03-14 07:42:00,16.0,9.0,30.26,North,0,0.0,0.0,75,0.00,,,0.00,,2013-03-14 12:42:00,
2013-03-14 07:52:00,16.0,9.0,30.26,North,0,0.0,0.0,75,0.00,,,0.00,,2013-03-14 12:52:00,
2013-03-14 08:02:00,16.0,9.0,30.27,North,0,0.0,0.0,74,0.00,,,0.00,,2013-03-14 13:02:00,
2013-03-14 08:12:00,16.0,9.0,30.27,North,0,0.0,0.0,74,0.00,,,0.00,,2013-03-14 13:12:00,
2013-03-14 08:22:00,17.0,10.0,30.26,North,0,0.0,0.0,74,0.00,,,0.00,,2013-03-14 13:22:00,
2013-03-14 08:32:00,19.0,12.0,30.27,North,0,0.0,0.0,74,0.00,,,0.00,,2013-03-14 13:32:00,
2013-03-14 08:42:00,19.0,12.0,30.27,North,0,0.0,0.0,74,0.00,,,0.00,,2013-03-14 13:42:00,
2013-03-14 08:52:00,22.0,15.0,30.26,North,0,0.0,1.0,75,0.00,,,0.00,,2013-03-14 13:52:00,
2013-03-14 09:02:00,24.0,17.0,30.26,North,0,0.0,0.0,75,0.00,,,0.00,,2013-03-14 14:02:00,
2013-03-14 09:12:00,24.0,17.0,30.26,North,0,0.0,0.0,75,0.00,,,0.00,,2013-03-14 14:12:00,
2013-03-14 09:22:00,24.0,17.0,30.26,North,0,0.0,1.0,74,0.00,,,0.00,,2013-03-14 14:22:00,
2013-03-14 09:32:00,24.0,17.0,30.26,North,0,0.0,0.0,73,0.00,,,0.00,,2013-03-14 14:32:00,
2013-03-14 09:42:00,24.0,17.0,30.26,North,0,0.0,0.0,73,0.00,,,0.00,,2013-03-14 14:42:00,
2013-03-14 09:53:00,24.0,17.0,30.26,North,0,0.0,0.0,73,0.00,,,0.00,,2013-03-14 14:53:00,
2013-03-14 10:02:00,24.0,17.0,30.26,North,0,0.0,0.0,73,0.00,,,0.00,,2013-03-14 15:02:00,
2013-03-14 10:12:00,24.0,17.0,30.26,North,0,0.0,0.0,73,0.00,,,0.00,,2013-03-14 15:12:00,
2013-03-14 10:22:00,27.0,18.0,30.26,North,0,0.0,1.0,68,0.00,,,0.00,,2013-03-14 15:22:00,
2013-03-14 10:33:00,27.0,18.0,30.26,North,0,0.0,1.0,68,0.00,,,0.00,,2013-03-14 15:33:00,
2013-03-14 10:43:00,27.0,18.0,30.26,North,0,0.0,1.0,68,0.00,,,0.00,,2013-03-14 15:43:00,
2013-03-14 10:52:00,29.0,19.0,30.25,North,0,0.0,2.0,65,0.00,,,0.00,,2013-03-14 15:52:00,
2013-03-14 11:02:00,29.0,19.0,30.25,North,0,0.0,2.0,65,0.00,,,0.00,,2013-03-14 16:02:00,
2013-03-14 11:12:00,29.0,19.0,30.25,North,0,0.0,2.0,65,0.00,,,0.00,,2013-03-14 16:12:00,
2013-03-14 11:22:00,30.0,20.0,30.25,North,0,0.0,1.0,65,0.00,,,0.00,,2013-03-14 16:22:00,
2013-03-14 11:32:00,31.0,20.0,30.25,North,0,0.0,2.0,62,0.00,,,0.00,,2013-03-14 16:32:00,
2013-03-14 11:42:00,31.0,20.0,30.25,North,0,0.0,2.0,62,0.00,,,0.00,,2013-03-14 16:42:00,
2013-03-14 11:52:00,32.0,19.0,30.24,WSW,257,1.0,5.0,59,0.00,,,0.00,,2013-03-14 16:52:00,
2013-03-14 12:02:00,31.0,19.0,30.24,North,0,0.0,4.0,61,0.00,,,0.00,,2013-03-14 17:02:00,
2013-03-14 12:12:00,31.0,19.0,30.24,North,0,0.0,4.0,61,0.00,,,0.00,,2013-03-14 17:12:00,
2013-03-14 12:23:00,32.0,20.0,30.23,North,0,0.0,4.0,60,0.00,,,0.00,,2013-03-14 17:23:00,
2013-03-14 12:32:00,32.0,20.0,30.23,North,0,0.0,6.0,60,0.00,,,0.00,,2013-03-14 17:32:00,
2013-03-14 12:42:00,32.0,20.0,30.23,North,0,0.0,6.0,60,0.00,,,0.00,,2013-03-14 17:42:00,
2013-03-14 12:52:00,32.0,19.0,30.22,SW,217,1.0,7.0,58,0.00,,,0.00,,2013-03-14 17:52:00,
2013-03-14 13:02:00,33.0,20.0,30.22,WSW,242,1.0,6.0,59,0.00,,,0.00,,2013-03-14 18:02:00,
2013-03-14 13:12:00,33.0,20.0,30.22,WSW,242,1.0,6.0,59,0.00,,,0.00,,2013-03-14 18:12:00,
2013-03-14 13:22:00,32.0,20.0,30.22,WSW,246,1.0,7.0,61,0.00,,,0.00,,2013-03-14 18:22:00,
2013-03-14 13:32:00,32.0,20.0,30.22,WSW,246,1.0,7.0,61,0.00,,,0.00,,2013-03-14 18:32:00,
2013-03-14 13:42:00,32.0,20.0,30.22,WSW,246,1.0,7.0,61,0.00,,,0.00,,2013-03-14 18:42:00,
2013-03-14 13:52:00,32.0,22.0,30.20,WSW,241,1.0,6.0,67,0.00,,,0.00,,2013-03-14 18:52:00,
2013-03-14 14:02:00,32.0,23.0,30.19,WSW,241,1.0,4.0,69,0.00,,,0.00,,2013-03-14 19:02:00,
2013-03-14 14:12:00,32.0,23.0,30.19,WSW,241,1.0,4.0,69,0.00,,,0.00,,2013-03-14 19:12:00,
2013-03-14 14:22:00,34.0,24.0,30.18,North,0,0.0,4.0,67,0.00,,,0.00,,2013-03-14 19:22:00,
2013-03-14 14:32:00,34.0,24.0,30.18,North,0,0.0,4.0,67,0.00,,,0.00,,2013-03-14 19:32:00,
2013-03-14 14:42:00,34.0,24.0,30.18,North,0,0.0,4.0,67,0.00,,,0.00,,2013-03-14 19:42:00,
2013-03-14 14:52:00,35.0,25.0,30.16,North,0,0.0,3.0,67,0.00,,,0.00,,2013-03-14 19:52:00,
2013-03-14 15:02:00,35.0,25.0,30.15,North,0,0.0,7.0,66,0.00,,,0.00,,2013-03-14 20:02:00,
2013-03-14 15:12:00,35.0,25.0,30.15,North,0,0.0,7.0,66,0.00,,,0.00,,2013-03-14 20:12:00,
2013-03-14 15:22:00,36.0,25.0,30.15,North,0,0.0,5.0,64,0.00,,,0.00,,2013-03-14 20:22:00,
2013-03-14 15:32:00,37.0,25.0,30.14,West,259,1.0,7.0,62,0.00,,,0.00,,2013-03-14 20:32:00,
2013-03-14 15:42:00,37.0,25.0,30.14,West,259,1.0,7.0,62,0.00,,,0.00,,2013-03-14 20:42:00,
2013-03-14 15:52:00,36.0,25.0,30.13,North,0,0.0,5.0,65,0.00,,,0.00,,2013-03-14 20:52:00,
2013-03-14 16:02:00,37.0,26.0,30.13,North,0,0.0,4.0,65,0.00,,,0.00,,2013-03-14 21:02:00,
2013-03-14 16:12:00,37.0,26.0,30.13,North,0,0.0,4.0,65,0.00,,,0.00,,2013-03-14 21:12:00,
2013-03-14 16:22:00,37.0,26.0,30.13,North,0,0.0,4.0,65,0.00,,,0.00,,2013-03-14 21:22:00,
2013-03-14 16:32:00,36.0,26.0,30.17,West,272,1.0,6.0,67,0.00,,,0.00,,2013-03-14 21:32:00,
2013-03-14 16:43:00,36.0,26.0,30.17,West,272,1.0,6.0,67,0.00,,,0.00,,2013-03-14 21:43:00,
2013-03-14 16:53:00,35.0,26.0,30.17,West,271,1.0,6.0,69,0.00,,,0.00,,2013-03-14 21:53:00,
2013-03-14 17:03:00,34.0,26.0,30.16,North,0,0.0,5.0,71,0.00,,,0.00,,2013-03-14 22:03:00,
2013-03-14 17:12:00,34.0,26.0,30.16,North,0,0.0,5.0,71,0.00,,,0.00,,2013-03-14 22:12:00,
2013-03-14 17:23:00,34.0,26.0,30.16,North,0,0.0,5.0,71,0.00,,,0.00,,2013-03-14 22:23:00,
2013-03-14 17:33:00,34.0,26.0,30.16,North,0,0.0,5.0,71,0.00,,,0.00,,2013-03-14 22:33:00,
2013-03-14 17:42:00,34.0,26.0,30.16,North,0,0.0,5.0,71,0.00,,,0.00,,2013-03-14 22:42:00,
2013-03-14 17:52:00,34.0,26.0,30.15,North,0,0.0,5.0,72,0.00,,,0.00,,2013-03-14 22:52:00,
2013-03-14 18:02:00,35.0,27.0,30.13,North,0,0.0,3.0,71,0.00,,,0.00,,2013-03-14 23:02:00,
2013-03-14 18:12:00,35.0,27.0,30.13,North,0,0.0,3.0,71,0.00,,,0.00,,2013-03-14 23:12:00,
2013-03-14 18:22:00,35.0,27.0,30.11,North,0,0.0,4.0,71,0.00,,,0.00,,2013-03-14 23:22:00,
2013-03-14 18:33:00,34.0,26.0,30.11,North,0,0.0,5.0,72,0.00,,,0.00,,2013-03-14 23:33:00,
2013-03-14 18:42:00,34.0,26.0,30.11,North,0,0.0,5.0,72,0.00,,,0.00,,2013-03-14 23:42:00,
2013-03-14 18:53:00,33.0,25.0,30.12,North,0,0.0,5.0,73,0.00,,,0.00,,2013-03-14 23:53:00,
2013-03-14 19:02:00,33.0,25.0,30.13,North,0,0.0,5.0,73,0.00,,,0.00,,2013-03-15 00:02:00,
2013-03-14 19:12:00,32.0,24.0,30.13,North,0,0.0,1.0,73,0.00,,,0.00,,2013-03-15 00:12:00,
2013-03-14 19:22:00,32.0,24.0,30.13,North,0,0.0,1.0,73,0.00,,,0.00,,2013-03-15 00:22:00,
2013-03-14 19:32:00,32.0,24.0,30.12,North,0,0.0,6.0,73,0.00,,,0.00,,2013-03-15 00:32:00,
2013-03-14 19:42:00,32.0,24.0,30.12,North,0,0.0,6.0,73,0.00,,,0.00,,2013-03-15 00:42:00,
2013-03-14 19:52:00,32.0,24.0,30.11,North,0,0.0,3.0,72,0.00,,,0.00,,2013-03-15 00:52:00,
2013-03-14 20:02:00,32.0,24.0,30.11,North,0,0.0,3.0,72,0.00,,,0.00,,2013-03-15 01:02:00,
2013-03-14 20:12:00,32.0,24.0,30.11,North,0,0.0,3.0,72,0.00,,,0.00,,2013-03-15 01:12:00,
2013-03-14 20:22:00,32.0,24.0,30.11,North,0,0.0,4.0,71,0.00,,,0.00,,2013-03-15 01:22:00,
2013-03-14 20:32:00,31.0,23.0,30.11,North,0,0.0,5.0,71,0.00,,,0.00,,2013-03-15 01:32:00,
2013-03-14 20:43:00,31.0,23.0,30.11,North,0,0.0,5.0,71,0.00,,,0.00,,2013-03-15 01:43:00,
2013-03-14 20:52:00,31.0,23.0,30.09,North,0,0.0,5.0,71,0.00,,,0.00,,2013-03-15 01:52:00,
2013-03-14 21:02:00,31.0,23.0,30.09,North,0,0.0,6.0,71,0.00,,,0.00,,2013-03-15 02:02:00,
2013-03-14 21:12:00,31.0,23.0,30.09,North,0,0.0,6.0,71,0.00,,,0.00,,2013-03-15 02:12:00,
2013-03-14 21:22:00,31.0,23.0,30.07,North,0,0.0,4.0,71,0.00,,,0.00,,2013-03-15 02:22:00,
2013-03-14 21:32:00,30.0,21.0,30.06,North,0,0.0,5.0,70,0.00,,,0.00,,2013-03-15 02:32:00,
2013-03-14 21:42:00,30.0,21.0,30.06,North,0,0.0,5.0,70,0.00,,,0.00,,2013-03-15 02:42:00,
2013-03-14 21:52:00,30.0,21.0,30.07,North,0,0.0,5.0,70,0.00,,,0.00,,2013-03-15 02:52:00,
2013-03-14 22:02:00,30.0,21.0,30.07,North,0,0.0,2.0,70,0.00,,,0.00,,2013-03-15 03:02:00,
2013-03-14 22:12:00,30.0,21.0,30.07,North,0,0.0,2.0,70,0.00,,,0.00,,2013-03-15 03:12:00,
2013-03-14 22:22:00,30.0,21.0,30.06,North,0,0.0,1.0,70,0.00,,,0.00,,2013-03-15 03:22:00,
2013-03-14 22:32:00,30.0,21.0,30.07,North,0,0.0,2.0,70,0.00,,,0.00,,2013-03-15 03:32:00,
2013-03-14 22:42:00,30.0,21.0,30.07,North,0,0.0,2.0,70,0.00,,,0.00,,2013-03-15 03:42:00,
2013-03-14 22:53:00,29.0,21.0,30.06,North,0,0.0,1.0,71,0.00,,,0.00,,2013-03-15 03:53:00,
2013-03-14 23:03:00,29.0,21.0,30.06,North,0,0.0,4.0,71,0.00,,,0.00,,2013-03-15 04:03:00,
2013-03-14 23:12:00,29.0,21.0,30.06,North,0,0.0,4.0,71,0.00,,,0.00,,2013-03-15 04:12:00,
2013-03-14 23:22:00,29.0,21.0,30.06,North,0,0.0,4.0,71,0.00,,,0.00,,2013-03-15 04:22:00,
2013-03-14 23:32:00,29.0,21.0,30.06,North,0,0.0,2.0,71,0.00,,,0.00,,2013-03-15 04:32:00,
2013-03-14 23:42:00,29.0,21.0,30.06,North,0,0.0,2.0,71,0.00,,,0.00,,2013-03-15 04:42:00,
2013-03-14 23:53:00,29.0,21.0,30.06,North,0,0.0,3.0,72,0.00,,,0.00,,2013-03-15 04:53:00,